x

Matinicus Rock, Me (mism1) Weather Station

3:00pm - Sun 19th Nov 2017 All times are EST. -5 hours from GMT.

  • Wind
    31mph, 33mph gusts
  • Air Temp 53°f
  • Sea Pressure 983.5mb
  • Matinicus Rock, Me
  • Matinicus Rock, Me

More Historic Weather Station data

Upgrade to MSW Pro to gain access to the past 30 days of data for over 8000 Wavebouys and Weather Stations around the globe.

Join

Comparision Forecast

View Surf forecast
   
Sun 11/19 3:00pm 31 33 mph 983.5mb 53f
2:00pm 37 40 mph 982.8mb 54f
1:00pm 39 44 mph 983.1mb 54f
12:00pm 34 38 mph 984.2mb 54f
11:00am 37 39 mph 985.7mb 54f
10:00am 37 43 mph 986.9mb 55f
9:00am 37 39 mph 987.5mb 55f
8:00am 38 43 mph 988.7mb 55f
7:00am 36 39 mph 989.7mb 55f
5:00am 31 33 mph 992.3mb 54f
4:00am 28 30 mph 993.7mb 52f
3:00am 25 26 mph 995.9mb 52f
2:00am 30 33 mph 996.7mb 52f
1:00am 15 17 mph 998.2mb 51f
12:00am 34 39 mph 999.3mb 51f
Sat 11/18 11:00pm 32 37 mph 1000.8mb 51f
10:00pm 30 34 mph 1002.3mb 50f
9:00pm 25 28 mph 1004.1mb 48f
8:00pm 21 22 mph 1005.7mb 47f
7:00pm 21 22 mph 1006.6mb 47f
6:00pm 23 25 mph 1007.1mb 46f
5:00pm 20 21 mph 1007.4mb 44f
4:00pm 10 11 mph 1007.9mb 42f
3:00pm 8 11 mph 1008.3mb 40f
2:00pm 6 8 mph 1009.3mb 39f
1:00pm  -  0 mph 1010.1mb 39f
12:00pm  -  1 mph 1010.9mb 38f
11:00am 5 7 mph 1011.6mb 37f
10:00am 11 13 mph 1012.9mb 35f
9:00am 11 13 mph 1012.9mb 34f
8:00am 17 18 mph 1013.5mb 34f
7:00am 18 21 mph 1012.7mb 34f
6:00am 18 21 mph 1012.4mb 33f
5:00am 25 28 mph 1011.9mb 34f
4:00am 25 28 mph 1012mb 33f
3:00am 25 28 mph 1011.8mb 34f
2:00am 26 31 mph 1012.2mb 34f
1:00am 30 33 mph 1011.4mb 33f
12:00am 31 37 mph 1011.6mb 34f
Fri 11/17 11:00pm 34 37 mph 1011.4mb 34f
10:00pm 36 39 mph 1010.8mb 34f
9:00pm 36 39 mph 1010.8mb 33f
8:00pm 30 32 mph 1011.3mb 33f
7:00pm 32 37 mph 1010.3mb 33f
6:00pm 37 45 mph 1009.1mb 35f
5:00pm 38 41 mph 1008.5mb 37f
4:00pm 33 37 mph 1007.3mb 38f
3:00pm 29 32 mph 1006.6mb 39f
2:00pm 38 41 mph 1005.4mb 40f
1:00pm 36 40 mph 1004.8mb 40f
12:00pm 44 47 mph 1004mb 41f
11:00am 45 47 mph 1003.9mb 41f
10:00am 39 44 mph 1003.9mb 42f
9:00am 38 43 mph 1003.5mb 41f
8:00am 37 45 mph 1003.2mb 41f
7:00am 37 40 mph 1002.5mb 42f
6:00am 36 39 mph 1001.6mb 43f
5:00am 36 39 mph 1001.1mb 43f
4:00am 30 32 mph 1000.8mb 44f
3:00am 29 31 mph 1000.9mb 43f
2:00am 28 30 mph 1000.7mb 42f
1:00am 26 29 mph 1000.6mb 42f
12:00am 21 23 mph 1000.6mb 42f
Thu 11/16 11:00pm 21 22 mph 1001.3mb 42f
10:00pm 16 17 mph 1001.8mb 43f
9:00pm 20 22 mph 1002.5mb 42f
8:00pm 20 21 mph 1003.7mb 42f
7:00pm 17 18 mph 1004mb 44f
6:00pm 7 9 mph 1005.3mb 44f
5:00pm 5 5 mph 1006.3mb 44f
4:00pm 8 8 mph 1007.5mb 45f
3:00pm 20 21 mph 1008.6mb 46f
2:00pm 15 15 mph 1008mb 46f
1:00pm 15 16 mph 1009.8mb 47f
12:00pm 16 17 mph 1011.9mb 46f
11:00am 15 17 mph 1013.2mb 45f
10:00am 18 20 mph 1013.8mb 45f
9:00am 13 16 mph 1014.7mb 44f
8:00am 9 11 mph 1015.9mb 43f
7:00am 9 11 mph 1016.5mb 42f
6:00am 8 9 mph 1017.3mb 42f
5:00am 10 13 mph 1017.4mb 41f
4:00am 7 11 mph 1018.3mb 40f
3:00am 6 7 mph 1019.1mb 40f
2:00am  -  1 mph 1019.6mb 39f
1:00am 2 3 mph 1019.8mb 39f
12:00am  -  2 mph 1020.4mb 38f
Wed 11/15 11:00pm 1 3 mph 1021.1mb 38f
10:00pm 5 6 mph 1021.8mb 39f